Terminal Aerodrome Forecast
Issued by NWS Cleveland, OH

Home | Current Version | Previous Version | Text Only | Print | Product List | Glossary On
Versions: 1 2 3 4 5 6 7 8 9 10 11 12 13 14 15 16 17 18 19 20 21 22 23 24 25 26 27 28 29 30
000
FTUS41 KCLE 011100
TAFCLE
TAF
KCLE 011138Z 0112/0218 VRB03KT P6SM BKN015
     FM011400 07005KT P6SM BKN012
     FM011700 04007KT P6SM BKN020
     FM011900 04007KT P6SM BKN035
     FM012200 07005KT P6SM SCT035
     FM020300 14003KT P6SM SKC=

USA.gov is the U.S. government's official web portal to all federal, state and local government web resources and services.